sensor_id;sensor_type;location;lat;lon;timestamp;pressure;altitude;pressure_sealevel;temperature;humidity
51849;BME280;38952;51.090;-1.832;2022-07-06T00:00:45;101583.09;;;13.92;77.94
51849;BME280;38952;51.090;-1.832;2022-07-06T00:03:10;101595.25;;;13.96;77.95
51849;BME280;38952;51.090;-1.832;2022-07-06T00:05:36;101594.41;;;13.95;78.14
51849;BME280;38952;51.090;-1.832;2022-07-06T00:08:01;101600.13;;;13.89;77.93
51849;BME280;38952;51.090;-1.832;2022-07-06T00:10:27;101599.50;;;13.82;78.43
51849;BME280;38952;51.090;-1.832;2022-07-06T00:12:52;101609.28;;;13.72;78.57
51849;BME280;38952;51.090;-1.832;2022-07-06T00:15:18;101613.06;;;13.66;79.18
51849;BME280;38952;51.090;-1.832;2022-07-06T00:17:43;101616.97;;;13.70;79.05
51849;BME280;38952;51.090;-1.832;2022-07-06T00:20:09;101610.91;;;13.68;79.26
51849;BME280;38952;51.090;-1.832;2022-07-06T00:22:35;101618.91;;;13.70;79.11
51849;BME280;38952;51.090;-1.832;2022-07-06T00:25:00;101607.69;;;13.76;79.25
51849;BME280;38952;51.090;-1.832;2022-07-06T00:27:25;101599.25;;;13.83;78.91
51849;BME280;38952;51.090;-1.832;2022-07-06T00:29:51;101605.00;;;13.82;78.89
51849;BME280;38952;51.090;-1.832;2022-07-06T00:32:19;101609.97;;;13.85;79.08
51849;BME280;38952;51.090;-1.832;2022-07-06T00:34:45;101596.78;;;13.87;78.50
51849;BME280;38952;51.090;-1.832;2022-07-06T00:37:11;101596.25;;;13.90;77.91
51849;BME280;38952;51.090;-1.832;2022-07-06T00:39:40;101597.63;;;13.87;77.92
51849;BME280;38952;51.090;-1.832;2022-07-06T00:42:08;101617.75;;;13.93;78.36
51849;BME280;38952;51.090;-1.832;2022-07-06T00:44:34;101600.84;;;13.79;78.53
51849;BME280;38952;51.090;-1.832;2022-07-06T00:46:59;101608.94;;;13.91;78.49
51849;BME280;38952;51.090;-1.832;2022-07-06T00:49:25;101603.97;;;13.88;78.13
51849;BME280;38952;51.090;-1.832;2022-07-06T00:52:09;101602.81;;;13.84;78.15
51849;BME280;38952;51.090;-1.832;2022-07-06T00:54:36;101605.88;;;13.87;78.29
51849;BME280;38952;51.090;-1.832;2022-07-06T00:57:01;101601.03;;;14.00;78.27
51849;BME280;38952;51.090;-1.832;2022-07-06T00:59:28;101609.09;;;14.06;77.77
51849;BME280;38952;51.090;-1.832;2022-07-06T01:01:53;101620.66;;;14.08;77.06
51849;BME280;38952;51.090;-1.832;2022-07-06T01:04:19;101604.06;;;13.98;77.72
51849;BME280;38952;51.090;-1.832;2022-07-06T01:06:47;101622.78;;;14.01;77.54
51849;BME280;38952;51.090;-1.832;2022-07-06T01:09:13;101621.59;;;13.92;77.98
51849;BME280;38952;51.090;-1.832;2022-07-06T01:11:39;101614.41;;;13.86;78.19
51849;BME280;38952;51.090;-1.832;2022-07-06T01:14:04;101602.81;;;13.84;78.33
51849;BME280;38952;51.090;-1.832;2022-07-06T01:16:31;101603.53;;;13.74;78.79
51849;BME280;38952;51.090;-1.832;2022-07-06T01:18:57;101609.16;;;13.62;78.79
51849;BME280;38952;51.090;-1.832;2022-07-06T01:21:22;101607.97;;;13.53;79.54
51849;BME280;38952;51.090;-1.832;2022-07-06T01:23:48;101598.47;;;13.38;78.92
51849;BME280;38952;51.090;-1.832;2022-07-06T01:26:16;101601.72;;;13.35;79.64
51849;BME280;38952;51.090;-1.832;2022-07-06T01:28:43;101603.81;;;13.28;79.94
51849;BME280;38952;51.090;-1.832;2022-07-06T01:31:25;101596.59;;;13.22;80.12
51849;BME280;38952;51.090;-1.832;2022-07-06T01:33:53;101595.34;;;13.13;79.81
51849;BME280;38952;51.090;-1.832;2022-07-06T01:36:20;101596.63;;;13.05;80.45
51849;BME280;38952;51.090;-1.832;2022-07-06T01:38:47;101607.63;;;13.05;80.75
51849;BME280;38952;51.090;-1.832;2022-07-06T01:41:13;101607.81;;;12.98;80.48
51849;BME280;38952;51.090;-1.832;2022-07-06T01:43:39;101609.97;;;12.96;80.95
51849;BME280;38952;51.090;-1.832;2022-07-06T01:46:05;101603.81;;;12.89;80.75
51849;BME280;38952;51.090;-1.832;2022-07-06T01:48:30;101602.66;;;12.85;81.16
51849;BME280;38952;51.090;-1.832;2022-07-06T01:50:56;101601.84;;;12.84;81.20
51849;BME280;38952;51.090;-1.832;2022-07-06T01:53:21;101604.78;;;12.78;81.40
51849;BME280;38952;51.090;-1.832;2022-07-06T01:55:47;101591.38;;;12.64;81.30
51849;BME280;38952;51.090;-1.832;2022-07-06T01:58:12;101597.38;;;12.61;81.90
51849;BME280;38952;51.090;-1.832;2022-07-06T02:00:38;101586.09;;;12.57;81.93
51849;BME280;38952;51.090;-1.832;2022-07-06T02:03:03;101598.72;;;12.58;81.59
51849;BME280;38952;51.090;-1.832;2022-07-06T02:05:29;101598.38;;;12.55;82.32
51849;BME280;38952;51.090;-1.832;2022-07-06T02:07:54;101590.66;;;12.52;82.45
51849;BME280;38952;51.090;-1.832;2022-07-06T02:10:19;101596.16;;;12.52;82.07
51849;BME280;38952;51.090;-1.832;2022-07-06T02:12:45;101600.56;;;12.53;82.43
51849;BME280;38952;51.090;-1.832;2022-07-06T02:15:10;101602.56;;;12.57;82.41
51849;BME280;38952;51.090;-1.832;2022-07-06T02:17:36;101599.56;;;12.59;82.37
51849;BME280;38952;51.090;-1.832;2022-07-06T02:20:03;101605.69;;;12.66;82.33
51849;BME280;38952;51.090;-1.832;2022-07-06T02:22:28;101597.97;;;12.63;82.63
51849;BME280;38952;51.090;-1.832;2022-07-06T02:24:54;101597.88;;;12.58;82.58
51849;BME280;38952;51.090;-1.832;2022-07-06T02:27:19;101609.28;;;12.67;82.42
51849;BME280;38952;51.090;-1.832;2022-07-06T02:29:45;101605.69;;;12.66;82.78
51849;BME280;38952;51.090;-1.832;2022-07-06T02:32:10;101603.53;;;12.68;82.74
51849;BME280;38952;51.090;-1.832;2022-07-06T02:34:35;101609.69;;;12.75;82.71
51849;BME280;38952;51.090;-1.832;2022-07-06T02:37:01;101602.50;;;12.74;82.55
51849;BME280;38952;51.090;-1.832;2022-07-06T02:39:26;101613.00;;;12.78;82.40
51849;BME280;38952;51.090;-1.832;2022-07-06T02:41:52;101612.34;;;12.70;82.33
51849;BME280;38952;51.090;-1.832;2022-07-06T02:44:17;101606.03;;;12.70;82.65
51849;BME280;38952;51.090;-1.832;2022-07-06T02:46:42;101615.50;;;12.62;82.64
51849;BME280;38952;51.090;-1.832;2022-07-06T02:49:08;101607.19;;;12.57;82.95
51849;BME280;38952;51.090;-1.832;2022-07-06T02:51:33;101613.19;;;12.54;82.78
51849;BME280;38952;51.090;-1.832;2022-07-06T02:53:59;101605.97;;;12.48;82.99
51849;BME280;38952;51.090;-1.832;2022-07-06T02:56:24;101607.03;;;12.47;83.31
51849;BME280;38952;51.090;-1.832;2022-07-06T02:58:56;101614.13;;;12.43;83.27
51849;BME280;38952;51.090;-1.832;2022-07-06T03:01:21;101622.81;;;12.39;83.23
51849;BME280;38952;51.090;-1.832;2022-07-06T03:03:49;101618.69;;;12.37;83.13
51849;BME280;38952;51.090;-1.832;2022-07-06T03:06:14;101624.44;;;12.35;83.41
51849;BME280;38952;51.090;-1.832;2022-07-06T03:08:40;101628.50;;;12.33;83.41
51849;BME280;38952;51.090;-1.832;2022-07-06T03:11:06;101613.34;;;12.30;83.51
51849;BME280;38952;51.090;-1.832;2022-07-06T03:13:31;101628.91;;;12.42;83.51
51849;BME280;38952;51.090;-1.832;2022-07-06T03:15:57;101625.09;;;12.43;83.39
51849;BME280;38952;51.090;-1.832;2022-07-06T03:18:22;101616.88;;;12.43;83.74
51849;BME280;38952;51.090;-1.832;2022-07-06T03:20:48;101610.03;;;12.45;83.47
51849;BME280;38952;51.090;-1.832;2022-07-06T03:23:13;101610.38;;;12.49;83.30
51849;BME280;38952;51.090;-1.832;2022-07-06T03:25:39;101620.84;;;12.52;82.87
51849;BME280;38952;51.090;-1.832;2022-07-06T03:28:04;101620.84;;;12.52;83.25
51849;BME280;38952;51.090;-1.832;2022-07-06T03:30:30;101610.38;;;12.49;83.43
51849;BME280;38952;51.090;-1.832;2022-07-06T03:32:55;101610.28;;;12.44;83.63
51849;BME280;38952;51.090;-1.832;2022-07-06T03:35:21;101604.22;;;12.42;83.82
51849;BME280;38952;51.090;-1.832;2022-07-06T03:37:46;101601.97;;;12.38;83.46
51849;BME280;38952;51.090;-1.832;2022-07-06T03:40:12;101595.31;;;12.34;83.93
51849;BME280;38952;51.090;-1.832;2022-07-06T03:42:37;101612.59;;;12.35;83.90
51849;BME280;38952;51.090;-1.832;2022-07-06T03:45:04;101617.16;;;12.29;83.86
51849;BME280;38952;51.090;-1.832;2022-07-06T03:47:29;101611.00;;;12.22;83.84
51849;BME280;38952;51.090;-1.832;2022-07-06T03:49:55;101620.34;;;12.21;83.84
51849;BME280;38952;51.090;-1.832;2022-07-06T03:52:21;101619.72;;;12.19;84.30
51849;BME280;38952;51.090;-1.832;2022-07-06T03:54:46;101625.16;;;12.14;84.59
51849;BME280;38952;51.090;-1.832;2022-07-06T03:57:12;101628.97;;;12.13;84.31
51849;BME280;38952;51.090;-1.832;2022-07-06T03:59:41;101615.19;;;12.08;84.50
51849;BME280;38952;51.090;-1.832;2022-07-06T04:02:06;101616.00;;;12.08;84.82
51849;BME280;38952;51.090;-1.832;2022-07-06T04:04:33;101593.72;;;12.04;84.76
51849;BME280;38952;51.090;-1.832;2022-07-06T04:06:59;101608.03;;;12.07;84.56
51849;BME280;38952;51.090;-1.832;2022-07-06T04:09:25;101606.84;;;12.02;84.96
51849;BME280;38952;51.090;-1.832;2022-07-06T04:11:50;101606.53;;;11.99;84.93
51849;BME280;38952;51.090;-1.832;2022-07-06T04:14:15;101602.69;;;12.00;84.96
51849;BME280;38952;51.090;-1.832;2022-07-06T04:16:41;101600.53;;;12.02;84.57
51849;BME280;38952;51.090;-1.832;2022-07-06T04:19:06;101591.56;;;12.07;84.49
51849;BME280;38952;51.090;-1.832;2022-07-06T04:21:34;101599.03;;;12.11;84.38
51849;BME280;38952;51.090;-1.832;2022-07-06T04:24:00;101584.03;;;12.14;84.42
51849;BME280;38952;51.090;-1.832;2022-07-06T04:26:25;101583.13;;;12.25;84.08
51849;BME280;38952;51.090;-1.832;2022-07-06T04:28:51;101587.34;;;12.33;83.97
51849;BME280;38952;51.090;-1.832;2022-07-06T04:31:16;101597.81;;;12.36;84.04
51849;BME280;38952;51.090;-1.832;2022-07-06T04:33:42;101603.06;;;12.37;83.97
51849;BME280;38952;51.090;-1.832;2022-07-06T04:36:09;101606.38;;;12.39;83.47
51849;BME280;38952;51.090;-1.832;2022-07-06T04:38:34;101607.53;;;12.44;83.60
51849;BME280;38952;51.090;-1.832;2022-07-06T04:41:00;101608.19;;;12.51;83.56
51849;BME280;38952;51.090;-1.832;2022-07-06T04:43:25;101612.19;;;12.60;83.45
51849;BME280;38952;51.090;-1.832;2022-07-06T04:45:50;101620.59;;;12.70;83.13
51849;BME280;38952;51.090;-1.832;2022-07-06T04:48:16;101615.16;;;12.75;82.80
51849;BME280;38952;51.090;-1.832;2022-07-06T04:50:42;101632.44;;;12.93;82.76
51849;BME280;38952;51.090;-1.832;2022-07-06T04:53:08;101624.34;;;13.03;82.20
51849;BME280;38952;51.090;-1.832;2022-07-06T04:55:33;101625.56;;;13.13;81.79
51849;BME280;38952;51.090;-1.832;2022-07-06T04:57:59;101633.13;;;13.22;81.70
51849;BME280;38952;51.090;-1.832;2022-07-06T05:00:24;101620.28;;;13.28;81.10
51849;BME280;38952;51.090;-1.832;2022-07-06T05:02:50;101614.53;;;13.30;81.23
51849;BME280;38952;51.090;-1.832;2022-07-06T05:05:15;101616.03;;;13.37;80.98
51849;BME280;38952;51.090;-1.832;2022-07-06T05:07:41;101613.03;;;13.39;80.77
51849;BME280;38952;51.090;-1.832;2022-07-06T05:10:11;101616.25;;;13.58;80.45
51849;BME280;38952;51.090;-1.832;2022-07-06T05:12:37;101621.69;;;13.75;80.22
51849;BME280;38952;51.090;-1.832;2022-07-06T05:15:03;101596.75;;;13.82;79.79
51849;BME280;38952;51.090;-1.832;2022-07-06T05:17:29;101592.75;;;13.94;79.25
51849;BME280;38952;51.090;-1.832;2022-07-06T05:19:54;101613.47;;;14.07;79.11
51849;BME280;38952;51.090;-1.832;2022-07-06T05:22:20;101616.31;;;14.12;79.02
51849;BME280;38952;51.090;-1.832;2022-07-06T05:24:46;101614.97;;;14.15;78.69
51849;BME280;38952;51.090;-1.832;2022-07-06T05:27:11;101606.09;;;14.08;78.30
51849;BME280;38952;51.090;-1.832;2022-07-06T05:29:37;101626.97;;;14.09;78.82
51849;BME280;38952;51.090;-1.832;2022-07-06T05:32:02;101622.84;;;14.06;78.96
51849;BME280;38952;51.090;-1.832;2022-07-06T05:34:28;101632.69;;;14.02;78.60
51849;BME280;38952;51.090;-1.832;2022-07-06T05:36:54;101633.75;;;13.96;78.52
51849;BME280;38952;51.090;-1.832;2022-07-06T05:39:19;101626.25;;;13.91;78.71
51849;BME280;38952;51.090;-1.832;2022-07-06T05:41:46;101639.75;;;13.93;79.03
51849;BME280;38952;51.090;-1.832;2022-07-06T05:44:15;101635.91;;;13.94;78.58
51849;BME280;38952;51.090;-1.832;2022-07-06T05:46:42;101630.31;;;14.11;77.66
51849;BME280;38952;51.090;-1.832;2022-07-06T05:49:08;101642.31;;;14.32;76.91
51849;BME280;38952;51.090;-1.832;2022-07-06T05:51:52;101644.97;;;14.22;76.99
51849;BME280;38952;51.090;-1.832;2022-07-06T05:54:17;101643.22;;;14.10;77.33
51849;BME280;38952;51.090;-1.832;2022-07-06T05:56:43;101640.16;;;14.07;77.52
51849;BME280;38952;51.090;-1.832;2022-07-06T05:59:08;101636.63;;;14.11;77.59
51849;BME280;38952;51.090;-1.832;2022-07-06T06:01:34;101648.06;;;14.25;77.56
51849;BME280;38952;51.090;-1.832;2022-07-06T06:03:59;101659.31;;;14.56;76.77
51849;BME280;38952;51.090;-1.832;2022-07-06T06:06:26;101656.28;;;14.85;75.99
51849;BME280;38952;51.090;-1.832;2022-07-06T06:08:51;101653.72;;;15.16;74.68
51849;BME280;38952;51.090;-1.832;2022-07-06T06:11:17;101654.09;;;15.35;74.25
51849;BME280;38952;51.090;-1.832;2022-07-06T06:13:42;101657.38;;;15.37;73.64
51849;BME280;38952;51.090;-1.832;2022-07-06T06:16:08;101646.91;;;15.34;73.54
51849;BME280;38952;51.090;-1.832;2022-07-06T06:18:33;101661.00;;;15.43;73.80
51849;BME280;38952;51.090;-1.832;2022-07-06T06:20:59;101655.25;;;15.54;72.71
51849;BME280;38952;51.090;-1.832;2022-07-06T06:23:24;101652.53;;;15.65;72.76
51849;BME280;38952;51.090;-1.832;2022-07-06T06:25:50;101664.19;;;15.77;72.60
51849;BME280;38952;51.090;-1.832;2022-07-06T06:28:15;101659.25;;;15.90;72.58
51849;BME280;38952;51.090;-1.832;2022-07-06T06:30:41;101660.97;;;16.01;72.29
51849;BME280;38952;51.090;-1.832;2022-07-06T06:33:18;101659.34;;;16.15;71.92
51849;BME280;38952;51.090;-1.832;2022-07-06T06:35:48;101654.34;;;16.17;71.74
51849;BME280;38952;51.090;-1.832;2022-07-06T06:38:15;101657.94;;;16.13;72.26
51849;BME280;38952;51.090;-1.832;2022-07-06T06:40:41;101659.84;;;16.07;72.50
51849;BME280;38952;51.090;-1.832;2022-07-06T06:43:06;101654.31;;;15.97;73.00
51849;BME280;38952;51.090;-1.832;2022-07-06T06:45:32;101659.28;;;15.95;73.32
51849;BME280;38952;51.090;-1.832;2022-07-06T06:47:58;101654.88;;;15.99;73.39
51849;BME280;38952;51.090;-1.832;2022-07-06T06:50:23;101650.50;;;16.08;73.42
51849;BME280;38952;51.090;-1.832;2022-07-06T06:52:50;101631.16;;;16.13;73.34
51849;BME280;38952;51.090;-1.832;2022-07-06T06:55:16;101639.75;;;16.37;73.29
51849;BME280;38952;51.090;-1.832;2022-07-06T06:57:41;101631.72;;;16.41;72.57
51849;BME280;38952;51.090;-1.832;2022-07-06T07:00:07;101649.41;;;16.55;72.37
51849;BME280;38952;51.090;-1.832;2022-07-06T07:02:33;101649.41;;;16.61;72.67
51849;BME280;38952;51.090;-1.832;2022-07-06T07:04:59;101658.25;;;16.78;72.02
51849;BME280;38952;51.090;-1.832;2022-07-06T07:07:24;101665.97;;;17.07;71.78
51849;BME280;38952;51.090;-1.832;2022-07-06T07:09:50;101656.44;;;17.39;71.14
51849;BME280;38952;51.090;-1.832;2022-07-06T07:12:15;101659.00;;;17.85;70.00
51849;BME280;38952;51.090;-1.832;2022-07-06T07:14:43;101666.41;;;18.40;68.79
51849;BME280;38952;51.090;-1.832;2022-07-06T07:17:08;101666.50;;;18.98;66.40
51849;BME280;38952;51.090;-1.832;2022-07-06T07:19:34;101666.38;;;19.81;64.36
51849;BME280;38952;51.090;-1.832;2022-07-06T07:21:59;101673.22;;;20.27;61.72
51849;BME280;38952;51.090;-1.832;2022-07-06T07:24:24;101659.53;;;20.31;61.15
51849;BME280;38952;51.090;-1.832;2022-07-06T07:26:50;101655.72;;;20.08;61.83
51849;BME280;38952;51.090;-1.832;2022-07-06T07:29:15;101663.84;;;19.85;61.93
51849;BME280;38952;51.090;-1.832;2022-07-06T07:31:41;101663.94;;;19.75;62.45
51849;BME280;38952;51.090;-1.832;2022-07-06T07:34:07;101671.50;;;19.93;62.28
51849;BME280;38952;51.090;-1.832;2022-07-06T07:36:32;101671.22;;;20.47;60.63
51849;BME280;38952;51.090;-1.832;2022-07-06T07:38:57;101674.41;;;21.20;58.44
51849;BME280;38952;51.090;-1.832;2022-07-06T07:41:23;101675.16;;;21.39;57.35
51849;BME280;38952;51.090;-1.832;2022-07-06T07:43:48;101687.13;;;21.54;57.08
51849;BME280;38952;51.090;-1.832;2022-07-06T07:46:14;101681.00;;;21.93;55.87
51849;BME280;38952;51.090;-1.832;2022-07-06T07:48:39;101686.75;;;22.34;54.88
51849;BME280;38952;51.090;-1.832;2022-07-06T07:51:06;101675.03;;;22.45;53.45
51849;BME280;38952;51.090;-1.832;2022-07-06T07:53:32;101677.91;;;22.54;53.74
51849;BME280;38952;51.090;-1.832;2022-07-06T07:55:58;101681.75;;;22.67;53.65
51849;BME280;38952;51.090;-1.832;2022-07-06T07:58:23;101673.38;;;22.90;53.41
51849;BME280;38952;51.090;-1.832;2022-07-06T08:00:49;101671.09;;;23.23;52.77
51849;BME280;38952;51.090;-1.832;2022-07-06T08:03:14;101676.00;;;23.75;51.64
51849;BME280;38952;51.090;-1.832;2022-07-06T08:05:40;101676.56;;;24.03;50.07
51849;BME280;38952;51.090;-1.832;2022-07-06T08:08:05;101676.88;;;24.37;49.78
51849;BME280;38952;51.090;-1.832;2022-07-06T08:10:31;101678.00;;;24.88;49.19
51849;BME280;38952;51.090;-1.832;2022-07-06T08:12:56;101667.50;;;25.15;48.04
51849;BME280;38952;51.090;-1.832;2022-07-06T08:15:22;101667.84;;;25.14;47.07
51849;BME280;38952;51.090;-1.832;2022-07-06T08:17:47;101658.22;;;24.94;48.19
51849;BME280;38952;51.090;-1.832;2022-07-06T08:20:13;101659.25;;;24.80;48.54
51849;BME280;38952;51.090;-1.832;2022-07-06T08:22:39;101642.00;;;24.69;48.75
51849;BME280;38952;51.090;-1.832;2022-07-06T08:25:05;101648.38;;;24.87;47.75
51849;BME280;38952;51.090;-1.832;2022-07-06T08:27:31;101640.63;;;24.93;47.78
51849;BME280;38952;51.090;-1.832;2022-07-06T08:29:56;101644.47;;;24.71;46.74
51849;BME280;38952;51.090;-1.832;2022-07-06T08:32:22;101647.91;;;23.72;47.42
51849;BME280;38952;51.090;-1.832;2022-07-06T08:34:50;101644.84;;;22.93;49.77
51849;BME280;38952;51.090;-1.832;2022-07-06T08:37:18;101643.63;;;22.54;50.73
51849;BME280;38952;51.090;-1.832;2022-07-06T08:39:44;101622.59;;;22.02;52.02
51849;BME280;38952;51.090;-1.832;2022-07-06T08:42:11;101634.69;;;21.84;52.94
51849;BME280;38952;51.090;-1.832;2022-07-06T08:44:40;101618.00;;;21.84;52.97
51849;BME280;38952;51.090;-1.832;2022-07-06T08:47:12;101613.88;;;21.81;52.64
51849;BME280;38952;51.090;-1.832;2022-07-06T08:49:41;101611.78;;;21.64;53.19
51849;BME280;38952;51.090;-1.832;2022-07-06T08:52:07;101615.22;;;21.70;53.35
51849;BME280;38952;51.090;-1.832;2022-07-06T08:54:55;101622.09;;;22.45;52.53
51849;BME280;38952;51.090;-1.832;2022-07-06T08:57:22;101611.88;;;23.26;50.59
51849;BME280;38952;51.090;-1.832;2022-07-06T08:59:48;101615.84;;;23.51;48.76
51849;BME280;38952;51.090;-1.832;2022-07-06T09:02:24;101613.72;;;23.08;49.12
51849;BME280;38952;51.090;-1.832;2022-07-06T09:04:50;101618.22;;;22.87;50.22
51849;BME280;38952;51.090;-1.832;2022-07-06T09:07:19;101621.44;;;23.51;49.97
51849;BME280;38952;51.090;-1.832;2022-07-06T09:09:49;101594.28;;;24.57;48.16
51849;BME280;38952;51.090;-1.832;2022-07-06T09:12:17;101584.72;;;25.14;45.73
51849;BME280;38952;51.090;-1.832;2022-07-06T09:15:08;101600.84;;;25.47;44.11
51849;BME280;38952;51.090;-1.832;2022-07-06T09:17:46;101620.13;;;26.33;43.63
51849;BME280;38952;51.090;-1.832;2022-07-06T09:20:15;101626.69;;;26.95;41.31
51849;BME280;38952;51.090;-1.832;2022-07-06T09:23:07;101630.94;;;27.02;41.16
51849;BME280;38952;51.090;-1.832;2022-07-06T09:28:57;101599.59;;;25.66;42.13
51849;BME280;38952;51.090;-1.832;2022-07-06T09:41:33;101585.25;;;24.51;44.75
51849;BME280;38952;51.090;-1.832;2022-07-06T09:44:56;101619.72;;;24.90;44.82
51849;BME280;38952;51.090;-1.832;2022-07-06T09:47:48;101592.94;;;25.19;43.67
51849;BME280;38952;51.090;-1.832;2022-07-06T09:50:44;101600.91;;;25.59;42.77
51849;BME280;38952;51.090;-1.832;2022-07-06T09:53:19;101581.75;;;26.12;42.43
51849;BME280;38952;51.090;-1.832;2022-07-06T09:55:56;101594.75;;;26.29;41.06
51849;BME280;38952;51.090;-1.832;2022-07-06T09:58:26;101624.38;;;25.97;41.27
51849;BME280;38952;51.090;-1.832;2022-07-06T10:00:57;101628.00;;;25.55;41.52
51849;BME280;38952;51.090;-1.832;2022-07-06T10:03:23;101598.47;;;24.89;42.80
51849;BME280;38952;51.090;-1.832;2022-07-06T10:05:52;101618.66;;;24.48;44.46
51849;BME280;38952;51.090;-1.832;2022-07-06T10:08:19;101601.63;;;23.88;45.22
51849;BME280;38952;51.090;-1.832;2022-07-06T10:10:45;101622.94;;;23.84;46.12
51849;BME280;38952;51.090;-1.832;2022-07-06T10:13:20;101595.69;;;23.72;46.35
51849;BME280;38952;51.090;-1.832;2022-07-06T10:16:18;101611.34;;;23.91;46.44
51849;BME280;38952;51.090;-1.832;2022-07-06T10:22:17;101626.13;;;24.00;46.93
51849;BME280;38952;51.090;-1.832;2022-07-06T10:24:43;101618.81;;;23.55;47.30
51849;BME280;38952;51.090;-1.832;2022-07-06T10:27:13;101609.53;;;23.20;48.17
51849;BME280;38952;51.090;-1.832;2022-07-06T10:29:40;101610.03;;;23.22;48.45
51849;BME280;38952;51.090;-1.832;2022-07-06T10:32:06;101597.19;;;23.96;47.15
51849;BME280;38952;51.090;-1.832;2022-07-06T10:34:36;101597.00;;;25.31;44.82
51849;BME280;38952;51.090;-1.832;2022-07-06T10:37:02;101606.88;;;25.79;43.18
51849;BME280;38952;51.090;-1.832;2022-07-06T10:39:57;101607.44;;;25.93;43.41
51849;BME280;38952;51.090;-1.832;2022-07-06T10:50:54;101595.72;;;27.54;39.82
51849;BME280;38952;51.090;-1.832;2022-07-06T10:53:36;101602.59;;;26.70;40.89
51849;BME280;38952;51.090;-1.832;2022-07-06T10:56:11;101588.97;;;25.92;42.37
51849;BME280;38952;51.090;-1.832;2022-07-06T10:59:09;101596.28;;;25.64;43.63
51849;BME280;38952;51.090;-1.832;2022-07-06T11:02:13;101600.25;;;25.63;44.12
51849;BME280;38952;51.090;-1.832;2022-07-06T11:05:00;101605.19;;;25.36;44.93
51849;BME280;38952;51.090;-1.832;2022-07-06T11:14:40;101613.03;;;25.51;45.21
51849;BME280;38952;51.090;-1.832;2022-07-06T11:17:23;101581.81;;;26.04;44.40
51849;BME280;38952;51.090;-1.832;2022-07-06T11:23:06;101607.22;;;25.99;43.74
51849;BME280;38952;51.090;-1.832;2022-07-06T11:25:32;101607.22;;;25.56;43.05
51849;BME280;38952;51.090;-1.832;2022-07-06T11:28:02;101583.38;;;25.20;42.77
51849;BME280;38952;51.090;-1.832;2022-07-06T11:40:39;101572.00;;;29.67;34.68
51849;BME280;38952;51.090;-1.832;2022-07-06T11:44:15;101567.47;;;32.05;31.30
51849;BME280;38952;51.090;-1.832;2022-07-06T11:50:56;101589.94;;;32.66;28.67
51849;BME280;38952;51.090;-1.832;2022-07-06T11:53:42;101571.97;;;31.19;31.23
51849;BME280;38952;51.090;-1.832;2022-07-06T11:56:58;101582.78;;;32.76;30.43
51849;BME280;38952;51.090;-1.832;2022-07-06T11:59:31;101589.94;;;33.14;28.69
51849;BME280;38952;51.090;-1.832;2022-07-06T12:04:43;101540.44;;;30.20;31.60
51849;BME280;38952;51.090;-1.832;2022-07-06T12:44:13;101526.28;;;25.64;42.61
51849;BME280;38952;51.090;-1.832;2022-07-06T12:46:48;101548.53;;;27.87;39.03
51849;BME280;38952;51.090;-1.832;2022-07-06T12:49:26;101535.84;;;33.34;29.36
51849;BME280;38952;51.090;-1.832;2022-07-06T12:51:58;101563.19;;;36.99;24.72
51849;BME280;38952;51.090;-1.832;2022-07-06T12:54:35;101547.47;;;37.26;23.85
51849;BME280;38952;51.090;-1.832;2022-07-06T12:57:08;101551.13;;;34.03;26.41
51849;BME280;38952;51.090;-1.832;2022-07-06T13:05:06;101558.81;;;29.36;34.38
51849;BME280;38952;51.090;-1.832;2022-07-06T13:07:43;101529.53;;;28.57;35.89
51849;BME280;38952;51.090;-1.832;2022-07-06T13:10:11;101541.22;;;32.42;31.05
51849;BME280;38952;51.090;-1.832;2022-07-06T13:12:39;101549.84;;;33.82;27.44
51849;BME280;38952;51.090;-1.832;2022-07-06T13:15:11;101559.91;;;32.99;28.46
51849;BME280;38952;51.090;-1.832;2022-07-06T13:17:37;101560.91;;;31.97;29.39
51849;BME280;38952;51.090;-1.832;2022-07-06T13:20:04;101539.34;;;30.98;31.19
51849;BME280;38952;51.090;-1.832;2022-07-06T13:22:30;101545.69;;;30.91;31.79
51849;BME280;38952;51.090;-1.832;2022-07-06T13:25:16;101544.78;;;33.39;27.68
51849;BME280;38952;51.090;-1.832;2022-07-06T13:27:46;101545.09;;;36.15;24.05
51849;BME280;38952;51.090;-1.832;2022-07-06T13:30:14;101545.97;;;34.48;26.46
51849;BME280;38952;51.090;-1.832;2022-07-06T13:32:43;101534.28;;;32.02;28.69
51849;BME280;38952;51.090;-1.832;2022-07-06T13:35:08;101529.84;;;30.14;31.70
51849;BME280;38952;51.090;-1.832;2022-07-06T13:37:35;101519.69;;;29.15;33.90
51849;BME280;38952;51.090;-1.832;2022-07-06T13:40:02;101519.84;;;31.43;30.45
51849;BME280;38952;51.090;-1.832;2022-07-06T13:42:36;101498.31;;;33.73;27.63
51849;BME280;38952;51.090;-1.832;2022-07-06T13:45:01;101509.13;;;32.72;28.51
51849;BME280;38952;51.090;-1.832;2022-07-06T13:47:29;101523.38;;;32.38;29.59
51849;BME280;38952;51.090;-1.832;2022-07-06T13:50:02;101513.38;;;32.51;29.10
51849;BME280;38952;51.090;-1.832;2022-07-06T13:52:28;101519.38;;;32.91;28.30
51849;BME280;38952;51.090;-1.832;2022-07-06T13:54:53;101529.84;;;33.50;27.61
51849;BME280;38952;51.090;-1.832;2022-07-06T13:57:22;101519.44;;;33.02;27.62
51849;BME280;38952;51.090;-1.832;2022-07-06T13:59:53;101486.81;;;31.47;30.12
51849;BME280;38952;51.090;-1.832;2022-07-06T14:02:21;101504.94;;;30.89;31.40
51849;BME280;38952;51.090;-1.832;2022-07-06T14:04:46;101492.53;;;30.43;32.88
51849;BME280;38952;51.090;-1.832;2022-07-06T14:07:12;101488.69;;;31.66;30.31
51849;BME280;38952;51.090;-1.832;2022-07-06T14:09:42;101492.00;;;33.17;28.55
51849;BME280;38952;51.090;-1.832;2022-07-06T14:12:18;101496.00;;;33.97;25.88
51849;BME280;38952;51.090;-1.832;2022-07-06T14:14:52;101491.03;;;31.60;29.25
51849;BME280;38952;51.090;-1.832;2022-07-06T14:17:20;101474.19;;;30.10;31.63
51849;BME280;38952;51.090;-1.832;2022-07-06T14:19:49;101500.56;;;29.59;33.21
51849;BME280;38952;51.090;-1.832;2022-07-06T14:22:15;101490.75;;;28.98;34.13